createdAt,value
2023-02-23T00:02:13.432Z,22.17
2023-02-23T00:05:18.799Z,23.33
2023-02-23T00:08:20.924Z,22.45
2023-02-23T00:11:23.047Z,21.03
2023-02-23T00:14:27.695Z,20.93
2023-02-23T00:17:31.648Z,22.90
2023-02-23T00:20:34.867Z,20.60
2023-02-23T00:23:38.864Z,20.12
2023-02-23T00:26:42.828Z,21.20
2023-02-23T00:29:44.995Z,18.80
2023-02-23T00:32:47.670Z,18.50
2023-02-23T00:35:49.668Z,22.70
2023-02-23T00:38:57.068Z,20.80
2023-02-23T00:42:03.588Z,18.67
2023-02-23T00:45:08.760Z,21.40
2023-02-23T00:48:10.962Z,21.30
2023-02-23T00:51:13.293Z,21.52
2023-02-23T00:54:16.901Z,19.10
2023-02-23T00:57:18.983Z,21.83
2023-02-23T01:00:21.853Z,23.23
2023-02-23T01:03:24.093Z,21.15
2023-02-23T01:06:26.270Z,18.92
2023-02-23T01:09:28.580Z,20.67
2023-02-23T01:12:31.197Z,20.57
2023-02-23T01:15:33.362Z,21.20
2023-02-23T01:18:36.305Z,21.65
2023-02-23T01:21:42.285Z,20.20
2023-02-23T01:24:44.409Z,18.60
2023-02-23T01:27:46.576Z,21.03
2023-02-23T01:30:49.071Z,17.43
2023-02-23T01:33:59.496Z,17.67
2023-02-23T01:37:01.573Z,16.50
2023-02-23T01:40:11.120Z,13.25
2023-02-23T01:43:16.363Z,17.03
2023-02-23T01:46:18.475Z,14.43
2023-02-23T01:49:29.580Z,18.17
2023-02-23T01:52:31.751Z,16.02
2023-02-23T01:55:34.475Z,16.58
2023-02-23T01:58:36.644Z,15.37
2023-02-23T02:01:40.877Z,19.77
2023-02-23T02:04:44.714Z,14.35
2023-02-23T02:07:58.540Z,16.35
2023-02-23T02:11:00.817Z,13.73
2023-02-23T02:14:16.612Z,18.27
2023-02-23T02:17:27.470Z,15.60
2023-02-23T02:20:38.101Z,14.75
2023-02-23T02:24:08.394Z,18.75
2023-02-23T02:27:32.524Z,17.02
2023-02-23T02:30:53.674Z,12.97
2023-02-23T02:34:33.462Z,16.80
2023-02-23T02:37:56.980Z,15.57
2023-02-23T02:41:23.058Z,18.05
2023-02-23T02:44:38.752Z,15.25
2023-02-23T02:47:55.693Z,13.77
2023-02-23T02:51:17.914Z,16.10
2023-02-23T02:54:21.156Z,14.05
2023-02-23T02:57:26.936Z,13.90
2023-02-23T03:00:55.928Z,13.95
2023-02-23T03:04:19.575Z,13.67
2023-02-23T03:07:49.274Z,13.90
2023-02-23T03:11:19.642Z,18.42
2023-02-23T03:14:40.170Z,16.05
2023-02-23T03:18:07.872Z,15.85
2023-02-23T03:21:40.738Z,16.47
2023-02-23T03:25:21.464Z,15.10
2023-02-23T03:28:50.180Z,17.52
2023-02-23T03:32:36.131Z,15.30
2023-02-23T03:36:09.650Z,15.38
2023-02-23T03:39:55.871Z,17.40
2023-02-23T03:43:20.945Z,15.50
2023-02-23T03:46:44.428Z,16.37
2023-02-23T03:50:07.992Z,16.48
2023-02-23T03:53:31.704Z,14.10
2023-02-23T03:56:56.642Z,15.40
2023-02-23T04:00:21.899Z,15.57
2023-02-23T04:03:46.200Z,17.65
2023-02-23T04:07:09.051Z,16.80
2023-02-23T04:10:31.257Z,18.05
2023-02-23T04:13:36.950Z,22.53
2023-02-23T04:16:40.081Z,19.37
2023-02-23T04:19:52.960Z,18.58
2023-02-23T04:22:55.135Z,18.55
2023-02-23T04:25:57.821Z,17.17
2023-02-23T04:29:00.466Z,17.90
2023-02-23T04:32:02.666Z,18.30
2023-02-23T04:35:05.097Z,20.10
2023-02-23T04:38:07.732Z,18.73
2023-02-23T04:41:10.315Z,16.80
2023-02-23T04:44:12.723Z,17.60
2023-02-23T04:47:15.958Z,15.53
2023-02-23T04:50:18.978Z,18.83
2023-02-23T04:53:21.309Z,18.45
2023-02-23T04:56:23.390Z,17.45
2023-02-23T04:59:25.599Z,19.30
2023-02-23T05:02:28.021Z,17.33
2023-02-23T05:05:30.142Z,17.05
2023-02-23T05:08:32.342Z,17.48
2023-02-23T05:11:34.626Z,19.00
2023-02-23T05:14:36.823Z,19.80
2023-02-23T05:17:42.163Z,21.07
2023-02-23T05:20:44.962Z,16.45
2023-02-23T05:23:48.110Z,19.55
2023-02-23T05:26:50.348Z,19.05
2023-02-23T05:29:52.441Z,17.40
2023-02-23T05:32:54.810Z,20.50
2023-02-23T05:35:57.572Z,17.98
2023-02-23T05:39:00.546Z,17.70
2023-02-23T05:42:02.942Z,14.80
2023-02-23T05:45:06.045Z,18.07
2023-02-23T05:48:10.172Z,19.03
2023-02-23T05:51:15.742Z,19.67
2023-02-23T05:54:17.842Z,19.15
2023-02-23T05:57:19.938Z,18.77
2023-02-23T06:00:22.426Z,21.60
2023-02-23T06:03:24.736Z,21.57
2023-02-23T06:06:28.556Z,20.67
2023-02-23T06:09:30.838Z,19.40
2023-02-23T06:12:32.973Z,20.73
2023-02-23T06:15:34.989Z,20.70
2023-02-23T06:18:37.203Z,19.87
2023-02-23T06:21:39.490Z,22.80
2023-02-23T06:24:41.739Z,19.85
2023-02-23T06:27:45.580Z,23.87
2023-02-23T06:30:48.898Z,20.80
2023-02-23T06:33:51.087Z,25.07
2023-02-23T06:36:53.272Z,25.17
2023-02-23T06:39:55.522Z,23.48
2023-02-23T06:42:58.188Z,22.40
2023-02-23T06:46:00.252Z,22.50
2023-02-23T06:49:02.454Z,22.13
2023-02-23T06:52:04.622Z,25.10
2023-02-23T06:55:07.822Z,24.92
2023-02-23T06:58:10.033Z,20.05
2023-02-23T07:01:15.862Z,23.13
2023-02-23T07:04:18.662Z,20.33
2023-02-23T07:07:20.857Z,22.83
2023-02-23T07:10:23.289Z,25.60
2023-02-23T07:13:25.471Z,23.65
2023-02-23T07:16:28.863Z,24.53
2023-02-23T07:22:34.725Z,33.03
2023-02-23T07:25:36.762Z,28.33
2023-02-23T07:28:38.982Z,30.90
2023-02-23T07:31:41.463Z,29.60
2023-02-23T07:34:43.673Z,24.57
2023-02-23T07:37:45.987Z,27.15
2023-02-23T07:40:50.483Z,30.17
2023-02-23T07:43:52.800Z,27.90
2023-02-23T07:46:54.870Z,26.03
2023-02-23T07:49:58.741Z,26.17
2023-02-23T07:53:01.133Z,23.40
2023-02-23T07:56:04.226Z,28.25
2023-02-23T07:59:06.418Z,30.67
2023-02-23T08:02:11.619Z,25.83
2023-02-23T08:05:14.164Z,34.43
2023-02-23T08:08:16.344Z,33.85
2023-02-23T08:11:18.718Z,28.52
2023-02-23T08:14:23.756Z,32.50
2023-02-23T08:17:26.203Z,40.37
2023-02-23T08:20:28.387Z,33.73
2023-02-23T08:23:34.718Z,34.85
2023-02-23T08:26:40.504Z,26.15
2023-02-23T08:29:42.737Z,26.60
2023-02-23T08:32:45.339Z,25.43
2023-02-23T08:35:47.696Z,30.20
2023-02-23T08:38:50.771Z,31.50
2023-02-23T08:41:55.706Z,28.85
2023-02-23T08:44:59.283Z,25.42
2023-02-23T08:48:01.406Z,26.47
2023-02-23T08:51:03.819Z,24.97
2023-02-23T08:54:10.118Z,26.98
2023-02-23T08:57:12.787Z,26.55
2023-02-23T09:00:16.952Z,26.37
2023-02-23T09:03:20.676Z,28.07
2023-02-23T09:06:25.639Z,21.03
2023-02-23T09:09:28.038Z,23.35
2023-02-23T09:12:30.284Z,22.02
2023-02-23T09:15:32.518Z,18.15
2023-02-23T09:18:35.193Z,17.50
2023-02-23T09:21:37.393Z,20.67
2023-02-23T09:24:39.539Z,21.40
2023-02-23T09:27:41.713Z,21.77
2023-02-23T09:30:45.703Z,19.27
2023-02-23T09:33:47.990Z,23.60
2023-02-23T09:36:50.030Z,23.57
2023-02-23T09:39:52.127Z,25.45
2023-02-23T09:43:02.725Z,17.83
2023-02-23T09:46:14.545Z,20.42
2023-02-23T09:49:23.149Z,24.50
2023-02-23T09:52:34.416Z,19.57
2023-02-23T09:55:41.121Z,20.77
2023-02-23T09:58:43.560Z,23.33
2023-02-23T10:02:02.446Z,21.40
2023-02-23T10:05:09.970Z,20.30
2023-02-23T10:08:18.199Z,17.67
2023-02-23T10:11:41.445Z,21.48
2023-02-23T10:15:01.906Z,18.85
2023-02-23T10:18:46.062Z,19.42
2023-02-23T10:21:58.288Z,19.17
2023-02-23T10:25:11.496Z,21.37
2023-02-23T10:28:17.094Z,26.40
2023-02-23T10:31:28.981Z,26.10
2023-02-23T10:34:31.736Z,22.87
2023-02-23T10:37:33.861Z,22.65
2023-02-23T10:40:36.532Z,20.07
2023-02-23T10:43:39.202Z,22.87
2023-02-23T10:46:42.877Z,22.05
2023-02-23T10:49:50.915Z,21.00
2023-02-23T10:52:58.178Z,16.43
2023-02-23T10:56:12.766Z,19.00
2023-02-23T10:59:20.621Z,18.05
2023-02-23T11:02:25.852Z,21.25
2023-02-23T11:05:30.111Z,21.80
2023-02-23T11:08:38.286Z,20.17
2023-02-23T11:11:40.421Z,19.77
2023-02-23T11:14:43.159Z,23.83
2023-02-23T11:17:45.329Z,19.92
2023-02-23T11:20:48.523Z,18.70
2023-02-23T11:23:53.385Z,19.40
2023-02-23T11:26:59.833Z,21.00
2023-02-23T11:30:06.964Z,18.55
2023-02-23T11:33:17.930Z,19.45
2023-02-23T11:36:22.886Z,18.87
2023-02-23T11:39:25.122Z,19.63
2023-02-23T11:42:33.435Z,20.10
2023-02-23T11:45:52.336Z,19.85
2023-02-23T11:49:00.124Z,17.65
2023-02-23T11:52:03.183Z,16.80
2023-02-23T11:55:18.148Z,21.43
2023-02-23T11:58:33.571Z,16.57
2023-02-23T12:01:44.845Z,18.73
2023-02-23T12:04:48.216Z,18.27
2023-02-23T12:08:16.204Z,21.55
2023-02-23T12:11:24.928Z,21.37
2023-02-23T12:14:41.044Z,25.17
2023-02-23T12:17:52.113Z,20.77
2023-02-23T12:20:58.056Z,25.23
2023-02-23T12:24:21.076Z,21.62
2023-02-23T12:27:46.621Z,21.90
2023-02-23T12:30:58.376Z,24.90
2023-02-23T12:34:05.472Z,23.25
2023-02-23T12:37:29.426Z,22.65
2023-02-23T12:40:35.971Z,28.27
2023-02-23T12:43:49.508Z,24.03
2023-02-23T12:46:55.159Z,21.33
2023-02-23T12:50:07.536Z,26.05
2023-02-23T12:53:28.413Z,23.58
2023-02-23T12:56:42.245Z,24.67
2023-02-23T13:00:05.168Z,24.90
2023-02-23T13:03:43.773Z,24.57
2023-02-23T13:06:55.584Z,25.17
2023-02-23T13:10:03.836Z,21.33
2023-02-23T13:13:30.177Z,31.75
2023-02-23T13:16:43.161Z,23.97
2023-02-23T13:20:01.769Z,23.47
2023-02-23T13:23:03.922Z,26.35
2023-02-23T13:26:10.944Z,23.20
2023-02-23T13:29:37.542Z,20.37
2023-02-23T13:32:40.418Z,20.63
2023-02-23T13:35:42.730Z,23.53
2023-02-23T13:39:18.024Z,23.50
2023-02-23T13:42:53.214Z,21.27
2023-02-23T13:46:04.705Z,22.25
2023-02-23T13:49:34.636Z,21.77
2023-02-23T13:52:43.473Z,23.67
2023-02-23T13:55:51.381Z,20.50
2023-02-23T13:58:53.509Z,22.27
2023-02-23T14:01:56.759Z,20.95
2023-02-23T14:05:25.033Z,22.03
2023-02-23T14:08:38.767Z,20.13
2023-02-23T14:11:49.685Z,21.40
2023-02-23T14:14:51.984Z,22.85
2023-02-23T14:18:18.931Z,21.65
2023-02-23T14:21:33.434Z,25.30
2023-02-23T14:24:36.307Z,26.53
2023-02-23T14:27:45.607Z,24.80
2023-02-23T14:30:59.072Z,22.60
2023-02-23T14:34:07.683Z,25.42
2023-02-23T14:37:37.892Z,28.13
2023-02-23T14:40:43.106Z,22.13
2023-02-23T14:43:45.748Z,21.65
2023-02-23T14:46:57.178Z,26.27
2023-02-23T14:50:02.763Z,21.37
2023-02-23T14:53:13.510Z,24.83
2023-02-23T14:56:32.584Z,22.57
2023-02-23T14:59:42.902Z,25.90
2023-02-23T15:02:58.264Z,26.80
2023-02-23T15:06:01.596Z,24.15
2023-02-23T15:09:04.440Z,22.47
2023-02-23T15:12:15.307Z,30.93
2023-02-23T15:15:20.993Z,29.50
2023-02-23T15:19:19.640Z,33.00
2023-02-23T15:22:38.558Z,30.33
2023-02-23T15:25:41.194Z,30.47
2023-02-23T15:28:45.771Z,26.60
2023-02-23T15:31:52.397Z,31.87
2023-02-23T15:35:05.080Z,26.98
2023-02-23T15:38:17.767Z,29.73
2023-02-23T15:41:53.301Z,27.97
2023-02-23T15:45:00.427Z,25.73
2023-02-23T15:48:09.191Z,22.95
2023-02-23T15:51:37.555Z,24.12
2023-02-23T15:55:06.502Z,23.80
2023-02-23T15:58:21.433Z,23.27
2023-02-23T16:01:29.362Z,24.07
2023-02-23T16:04:33.949Z,23.70
2023-02-23T16:07:43.520Z,30.35
2023-02-23T16:10:47.884Z,30.33
2023-02-23T16:13:52.032Z,30.00
2023-02-23T16:17:09.958Z,28.40
2023-02-23T16:20:25.935Z,27.55
2023-02-23T16:23:41.153Z,31.33
2023-02-23T16:26:58.057Z,57.47
2023-02-23T16:30:16.864Z,37.50
2023-02-23T16:33:26.077Z,31.63
2023-02-23T16:36:39.922Z,31.85
2023-02-23T16:39:42.527Z,28.70
2023-02-23T16:42:45.728Z,31.62
2023-02-23T16:45:48.516Z,28.70
2023-02-23T16:48:51.719Z,30.00
2023-02-23T16:51:54.292Z,33.78
2023-02-23T16:54:57.293Z,30.67
2023-02-23T16:58:03.236Z,33.65
2023-02-23T17:01:06.400Z,43.10
2023-02-23T17:04:16.212Z,40.77
2023-02-23T17:07:23.831Z,36.58
2023-02-23T17:10:39.314Z,35.38
2023-02-23T17:13:44.775Z,32.10
2023-02-23T17:16:47.824Z,31.63
2023-02-23T17:19:51.195Z,32.70
2023-02-23T17:22:55.695Z,35.28
2023-02-23T17:25:58.839Z,33.22
2023-02-23T17:29:02.363Z,35.33
2023-02-23T17:32:05.507Z,38.97
2023-02-23T17:35:09.243Z,48.60
2023-02-23T17:38:13.104Z,54.53
2023-02-23T17:41:19.784Z,47.42
2023-02-23T17:44:23.284Z,40.88
2023-02-23T17:47:26.249Z,39.57
2023-02-23T17:50:30.385Z,42.23
2023-02-23T17:53:33.249Z,39.90
2023-02-23T17:56:36.536Z,41.28
2023-02-23T17:59:39.697Z,39.58
2023-02-23T18:02:45.498Z,43.87
2023-02-23T18:05:49.062Z,58.47
2023-02-23T18:08:52.054Z,46.37
2023-02-23T18:11:59.909Z,53.55
2023-02-23T18:15:05.996Z,53.75
2023-02-23T18:18:09.128Z,40.37
2023-02-23T18:21:19.720Z,44.47
2023-02-23T18:24:28.087Z,40.70
2023-02-23T18:27:33.203Z,44.97
2023-02-23T18:30:38.053Z,33.72
2023-02-23T18:33:42.592Z,40.30
2023-02-23T18:36:48.000Z,39.93
2023-02-23T18:39:55.038Z,41.50
2023-02-23T18:43:00.110Z,39.47
2023-02-23T18:46:09.164Z,42.40
2023-02-23T18:49:18.630Z,44.67
2023-02-23T18:52:22.486Z,44.33
2023-02-23T18:55:27.018Z,45.25
2023-02-23T18:58:32.428Z,42.10
2023-02-23T19:01:39.935Z,41.42
2023-02-23T19:04:43.910Z,44.30
2023-02-23T19:07:49.686Z,43.23
2023-02-23T19:10:54.003Z,46.55
2023-02-23T19:14:03.199Z,44.55
2023-02-23T19:17:07.790Z,39.85
2023-02-23T19:20:15.159Z,43.70
2023-02-23T19:23:23.968Z,69.43
2023-02-23T19:26:29.944Z,45.03
2023-02-23T19:29:33.950Z,43.53
2023-02-23T19:32:40.362Z,48.22
2023-02-23T19:35:47.660Z,45.30
2023-02-23T19:38:51.409Z,52.53
2023-02-23T19:41:55.624Z,54.97
2023-02-23T19:45:00.949Z,52.92
2023-02-23T19:48:06.037Z,58.20
2023-02-23T19:51:14.967Z,46.67
2023-02-23T19:54:20.548Z,49.87
2023-02-23T19:57:25.264Z,55.17
2023-02-23T20:00:29.528Z,47.78
2023-02-23T20:03:33.835Z,44.53
2023-02-23T20:06:47.750Z,42.97
2023-02-23T20:09:53.204Z,45.23
2023-02-23T20:12:57.761Z,44.63
2023-02-23T20:16:10.323Z,41.35
2023-02-23T20:19:14.023Z,42.42
2023-02-23T20:22:18.254Z,42.67
2023-02-23T20:25:24.255Z,48.77
2023-02-23T20:28:27.691Z,47.83
2023-02-23T20:31:36.070Z,40.35
2023-02-23T20:34:41.781Z,44.60
2023-02-23T20:37:46.193Z,42.23
2023-02-23T20:40:51.969Z,40.07
2023-02-23T20:43:56.754Z,38.30
2023-02-23T20:47:06.878Z,33.88
2023-02-23T20:50:19.016Z,38.92
2023-02-23T20:53:23.836Z,44.77
2023-02-23T20:56:32.949Z,36.83
2023-02-23T20:59:37.186Z,36.67
2023-02-23T21:02:43.926Z,35.55
2023-02-23T21:05:49.105Z,40.60
2023-02-23T21:08:56.130Z,40.27
2023-02-23T21:11:59.433Z,41.40
2023-02-23T21:15:05.038Z,44.22
2023-02-23T21:18:08.867Z,40.20
2023-02-23T21:21:16.101Z,39.92
2023-02-23T21:24:23.773Z,41.67
2023-02-23T21:27:28.126Z,46.27
2023-02-23T21:30:31.112Z,45.67
2023-02-23T21:33:33.940Z,45.83
2023-02-23T21:36:37.480Z,47.62
2023-02-23T21:39:41.450Z,48.13
2023-02-23T21:42:44.157Z,50.93
2023-02-23T21:45:46.849Z,42.85
2023-02-23T21:48:49.687Z,44.08
2023-02-23T21:51:54.547Z,44.22
2023-02-23T21:54:57.231Z,45.47
2023-02-23T21:58:00.076Z,43.83
2023-02-23T22:01:14.516Z,42.40
2023-02-23T22:04:16.928Z,42.20
2023-02-23T22:07:19.084Z,44.33
2023-02-23T22:10:23.767Z,46.70
2023-02-23T22:13:25.915Z,40.17
2023-02-23T22:16:33.918Z,40.75
2023-02-23T22:19:36.043Z,46.20
2023-02-23T22:22:38.090Z,49.38
2023-02-23T22:25:40.493Z,46.60
2023-02-23T22:28:43.089Z,41.73
2023-02-23T22:31:45.490Z,45.72
2023-02-23T22:34:47.552Z,46.97
2023-02-23T22:37:49.669Z,46.45
2023-02-23T22:40:51.801Z,43.33
2023-02-23T22:43:59.926Z,41.97
2023-02-23T22:47:02.019Z,45.72
2023-02-23T22:50:07.034Z,40.30
2023-02-23T22:53:09.152Z,40.95
2023-02-23T22:56:11.424Z,40.43
2023-02-23T22:59:17.699Z,35.27
2023-02-23T23:02:20.707Z,38.25
2023-02-23T23:05:22.775Z,38.85
2023-02-23T23:08:24.899Z,40.70
2023-02-23T23:11:30.776Z,40.40
2023-02-23T23:14:33.756Z,37.50
2023-02-23T23:17:35.876Z,38.20
2023-02-23T23:20:39.078Z,41.72
2023-02-23T23:23:43.040Z,36.83
2023-02-23T23:26:45.161Z,39.80
2023-02-23T23:29:48.868Z,40.73
2023-02-23T23:32:51.184Z,38.30
2023-02-23T23:35:53.584Z,37.63
2023-02-23T23:38:56.631Z,41.03
2023-02-23T23:41:58.733Z,38.17
2023-02-23T23:45:02.123Z,40.97
2023-02-23T23:48:09.543Z,41.50
2023-02-23T23:51:11.695Z,38.50
2023-02-23T23:54:16.428Z,41.70
2023-02-23T23:57:18.715Z,38.83
